Aviation Digital Data Service (ADDS)

Output produced by METARs form (1827 UTC 22 November 2017)
found at http://www.aviationweather.gov/adds/metars/
 
TAF MZBZ 221500Z 2218/2318 VRB05KT 9999 SCT022 
     BECMG 2220/2224 28005KT 
     PROB30 
     TEMPO 2300/2312 5000 SHRA BKN015 BKN040
       
TAF MZBZ 221500Z 2218/2318 VRB05KT 9999 SCT022 
     BECMG 2220/2224 28005KT 
     PROB30 
     TEMPO 2300/2312 5000 SHRA BKN015 BKN040